sensor_id;sensor_type;location;lat;lon;timestamp;pressure;altitude;pressure_sealevel;temperature;humidity
5812;BME280;2932;52.400;9.558;2023-05-01T00:01:31;101365.84;;;15.05;49.33
5812;BME280;2932;52.400;9.558;2023-05-01T00:03:57;101359.81;;;15.02;49.72
5812;BME280;2932;52.400;9.558;2023-05-01T00:06:22;101361.00;;;15.01;49.59
5812;BME280;2932;52.400;9.558;2023-05-01T00:08:47;101354.41;;;14.94;49.83
5812;BME280;2932;52.400;9.558;2023-05-01T00:11:13;101350.56;;;14.98;49.77
5812;BME280;2932;52.400;9.558;2023-05-01T00:13:40;101349.75;;;14.98;49.98
5812;BME280;2932;52.400;9.558;2023-05-01T00:16:10;101346.78;;;14.91;50.10
5812;BME280;2932;52.400;9.558;2023-05-01T00:18:36;101345.66;;;14.80;50.09
5812;BME280;2932;52.400;9.558;2023-05-01T00:21:01;101333.09;;;14.70;50.39
5812;BME280;2932;52.400;9.558;2023-05-01T00:23:27;101338.75;;;14.74;50.39
5812;BME280;2932;52.400;9.558;2023-05-01T00:25:53;101344.34;;;14.74;50.33
5812;BME280;2932;52.400;9.558;2023-05-01T00:28:18;101332.63;;;14.68;50.47
5812;BME280;2932;52.400;9.558;2023-05-01T00:30:43;101332.56;;;14.80;50.20
5812;BME280;2932;52.400;9.558;2023-05-01T00:33:10;101330.31;;;14.70;50.10
5812;BME280;2932;52.400;9.558;2023-05-01T00:35:35;101324.91;;;14.61;50.45
5812;BME280;2932;52.400;9.558;2023-05-01T00:38:01;101329.56;;;14.57;50.31
5812;BME280;2932;52.400;9.558;2023-05-01T00:40:26;101321.44;;;14.52;50.21
5812;BME280;2932;52.400;9.558;2023-05-01T00:42:52;101330.88;;;14.48;50.31
5812;BME280;2932;52.400;9.558;2023-05-01T00:45:17;101314.97;;;14.48;50.34
5812;BME280;2932;52.400;9.558;2023-05-01T00:47:42;101315.38;;;14.34;50.45
5812;BME280;2932;52.400;9.558;2023-05-01T00:50:08;101314.31;;;14.39;49.91
5812;BME280;2932;52.400;9.558;2023-05-01T00:52:34;101313.00;;;14.21;50.54
5812;BME280;2932;52.400;9.558;2023-05-01T00:55:00;101311.63;;;14.15;50.88
5812;BME280;2932;52.400;9.558;2023-05-01T00:57:25;101311.00;;;14.21;50.96
5812;BME280;2932;52.400;9.558;2023-05-01T00:59:51;101311.81;;;14.22;50.89
5812;BME280;2932;52.400;9.558;2023-05-01T01:02:16;101307.56;;;14.12;51.05
5812;BME280;2932;52.400;9.558;2023-05-01T01:04:43;101306.19;;;14.06;51.15
5812;BME280;2932;52.400;9.558;2023-05-01T01:12:23;101301.41;;;13.79;51.73
5812;BME280;2932;52.400;9.558;2023-05-01T01:15:15;101304.72;;;13.56;52.30
5812;BME280;2932;52.400;9.558;2023-05-01T01:17:56;101292.66;;;13.52;52.20
5812;BME280;2932;52.400;9.558;2023-05-01T01:31:10;101279.13;;;13.51;52.38
5812;BME280;2932;52.400;9.558;2023-05-01T01:34:07;101280.03;;;13.43;52.38
5812;BME280;2932;52.400;9.558;2023-05-01T01:36:45;101275.69;;;13.69;52.23
5812;BME280;2932;52.400;9.558;2023-05-01T01:39:39;101266.16;;;13.83;51.86
5812;BME280;2932;52.400;9.558;2023-05-01T01:42:10;101260.41;;;13.76;52.11
5812;BME280;2932;52.400;9.558;2023-05-01T01:44:40;101262.00;;;13.77;51.83
5812;BME280;2932;52.400;9.558;2023-05-01T01:47:10;101270.25;;;13.73;51.91
5812;BME280;2932;52.400;9.558;2023-05-01T01:49:39;101262.19;;;13.56;52.11
5812;BME280;2932;52.400;9.558;2023-05-01T01:52:06;101255.47;;;13.57;51.97
5812;BME280;2932;52.400;9.558;2023-05-01T01:54:50;101258.78;;;13.62;52.00
5812;BME280;2932;52.400;9.558;2023-05-01T01:57:18;101251.97;;;13.60;51.94
5812;BME280;2932;52.400;9.558;2023-05-01T01:59:45;101245.81;;;13.66;52.09
5812;BME280;2932;52.400;9.558;2023-05-01T02:02:13;101242.03;;;13.59;52.25
5812;BME280;2932;52.400;9.558;2023-05-01T02:04:41;101245.09;;;13.69;52.20
5812;BME280;2932;52.400;9.558;2023-05-01T02:07:07;101240.16;;;13.63;52.27
5812;BME280;2932;52.400;9.558;2023-05-01T02:09:36;101236.63;;;13.78;51.92
5812;BME280;2932;52.400;9.558;2023-05-01T02:12:04;101224.69;;;13.78;52.07
5812;BME280;2932;52.400;9.558;2023-05-01T02:14:31;101229.91;;;13.79;51.78
5812;BME280;2932;52.400;9.558;2023-05-01T02:16:58;101228.53;;;13.73;51.98
5812;BME280;2932;52.400;9.558;2023-05-01T02:19:24;101220.06;;;13.82;51.62
5812;BME280;2932;52.400;9.558;2023-05-01T02:21:51;101218.75;;;13.91;51.32
5812;BME280;2932;52.400;9.558;2023-05-01T02:24:18;101214.03;;;13.80;51.76
5812;BME280;2932;52.400;9.558;2023-05-01T02:26:49;101213.94;;;13.76;51.76
5812;BME280;2932;52.400;9.558;2023-05-01T02:29:16;101203.84;;;13.72;51.68
5812;BME280;2932;52.400;9.558;2023-05-01T02:31:41;101207.09;;;13.74;51.74
5812;BME280;2932;52.400;9.558;2023-05-01T02:34:06;101205.47;;;13.73;51.63
5812;BME280;2932;52.400;9.558;2023-05-01T02:36:32;101193.03;;;13.82;51.39
5812;BME280;2932;52.400;9.558;2023-05-01T02:38:59;101199.00;;;13.68;51.86
5812;BME280;2932;52.400;9.558;2023-05-01T02:41:25;101196.69;;;13.71;51.73
5812;BME280;2932;52.400;9.558;2023-05-01T02:43:55;101186.13;;;13.76;51.73
5812;BME280;2932;52.400;9.558;2023-05-01T02:46:24;101187.78;;;13.65;51.81
5812;BME280;2932;52.400;9.558;2023-05-01T02:48:52;101186.91;;;13.77;51.85
5812;BME280;2932;52.400;9.558;2023-05-01T02:51:18;101183.47;;;13.67;52.00
5812;BME280;2932;52.400;9.558;2023-05-01T02:53:44;101181.59;;;13.72;52.06
5812;BME280;2932;52.400;9.558;2023-05-01T02:56:10;101184.06;;;13.61;52.19
5812;BME280;2932;52.400;9.558;2023-05-01T02:58:37;101186.16;;;13.64;52.20
5812;BME280;2932;52.400;9.558;2023-05-01T03:01:02;101180.41;;;13.57;52.29
5812;BME280;2932;52.400;9.558;2023-05-01T03:03:28;101179.31;;;13.61;52.07
5812;BME280;2932;52.400;9.558;2023-05-01T03:05:53;101176.53;;;13.61;52.22
5812;BME280;2932;52.400;9.558;2023-05-01T03:08:19;101173.16;;;13.68;52.33
5812;BME280;2932;52.400;9.558;2023-05-01T03:10:44;101175.72;;;13.61;52.35
5812;BME280;2932;52.400;9.558;2023-05-01T03:13:10;101168.47;;;13.56;52.49
5812;BME280;2932;52.400;9.558;2023-05-01T03:15:36;101170.28;;;13.64;52.42
5812;BME280;2932;52.400;9.558;2023-05-01T03:18:02;101170.81;;;13.54;52.74
5812;BME280;2932;52.400;9.558;2023-05-01T03:20:28;101168.47;;;13.16;53.24
5812;BME280;2932;52.400;9.558;2023-05-01T03:22:53;101161.03;;;13.20;53.30
5812;BME280;2932;52.400;9.558;2023-05-01T03:25:19;101162.78;;;13.13;53.46
5812;BME280;2932;52.400;9.558;2023-05-01T03:27:44;101158.03;;;13.13;53.55
5812;BME280;2932;52.400;9.558;2023-05-01T03:30:09;101156.31;;;12.96;53.78
5812;BME280;2932;52.400;9.558;2023-05-01T03:32:35;101151.88;;;13.20;53.44
5812;BME280;2932;52.400;9.558;2023-05-01T03:35:01;101144.00;;;13.22;53.40
5812;BME280;2932;52.400;9.558;2023-05-01T03:37:27;101146.09;;;13.25;53.18
5812;BME280;2932;52.400;9.558;2023-05-01T03:39:52;101145.28;;;13.24;53.12
5812;BME280;2932;52.400;9.558;2023-05-01T03:42:18;101134.25;;;12.76;53.93
5812;BME280;2932;52.400;9.558;2023-05-01T03:44:43;101125.34;;;12.70;54.00
5812;BME280;2932;52.400;9.558;2023-05-01T03:47:09;101136.53;;;12.49;54.51
5812;BME280;2932;52.400;9.558;2023-05-01T03:49:35;101128.34;;;12.53;54.40
5812;BME280;2932;52.400;9.558;2023-05-01T03:52:00;101124.97;;;12.59;54.60
5812;BME280;2932;52.400;9.558;2023-05-01T03:54:25;101130.88;;;12.70;54.30
5812;BME280;2932;52.400;9.558;2023-05-01T03:56:51;101130.16;;;12.97;53.69
5812;BME280;2932;52.400;9.558;2023-05-01T03:59:16;101124.56;;;13.10;53.48
5812;BME280;2932;52.400;9.558;2023-05-01T04:01:42;101121.25;;;13.16;53.11
5812;BME280;2932;52.400;9.558;2023-05-01T04:04:08;101111.38;;;13.07;53.58
5812;BME280;2932;52.400;9.558;2023-05-01T04:06:33;101120.88;;;13.06;53.55
5812;BME280;2932;52.400;9.558;2023-05-01T04:08:59;101120.88;;;13.06;53.46
5812;BME280;2932;52.400;9.558;2023-05-01T04:11:25;101113.34;;;13.06;53.66
5812;BME280;2932;52.400;9.558;2023-05-01T04:13:51;101118.31;;;13.13;53.21
5812;BME280;2932;52.400;9.558;2023-05-01T04:16:16;101115.06;;;13.23;53.27
5812;BME280;2932;52.400;9.558;2023-05-01T04:18:42;101114.88;;;13.16;53.38
5812;BME280;2932;52.400;9.558;2023-05-01T04:21:07;101109.59;;;13.26;53.15
5812;BME280;2932;52.400;9.558;2023-05-01T04:23:33;101108.63;;;13.19;53.21
5812;BME280;2932;52.400;9.558;2023-05-01T04:25:58;101117.38;;;13.21;53.19
5812;BME280;2932;52.400;9.558;2023-05-01T04:28:23;101107.81;;;13.18;53.25
5812;BME280;2932;52.400;9.558;2023-05-01T04:30:49;101107.56;;;13.11;53.26
5812;BME280;2932;52.400;9.558;2023-05-01T04:33:14;101103.75;;;13.03;53.17
5812;BME280;2932;52.400;9.558;2023-05-01T04:35:40;101104.44;;;13.13;53.29
5812;BME280;2932;52.400;9.558;2023-05-01T04:38:07;101107.44;;;13.08;53.24
5812;BME280;2932;52.400;9.558;2023-05-01T04:40:32;101105.38;;;13.05;53.35
5812;BME280;2932;52.400;9.558;2023-05-01T04:42:58;101102.13;;;13.15;53.10
5812;BME280;2932;52.400;9.558;2023-05-01T04:45:23;101108.38;;;13.12;53.11
5812;BME280;2932;52.400;9.558;2023-05-01T04:47:48;101094.72;;;13.19;53.05
5812;BME280;2932;52.400;9.558;2023-05-01T04:50:14;101093.66;;;13.11;53.15
5812;BME280;2932;52.400;9.558;2023-05-01T04:52:39;101095.66;;;12.98;53.21
5812;BME280;2932;52.400;9.558;2023-05-01T04:55:05;101095.19;;;12.96;53.51
5812;BME280;2932;52.400;9.558;2023-05-01T04:57:31;101091.72;;;12.99;53.43
5812;BME280;2932;52.400;9.558;2023-05-01T04:59:56;101098.44;;;12.98;53.14
5812;BME280;2932;52.400;9.558;2023-05-01T05:02:22;101093.81;;;13.02;53.17
5812;BME280;2932;52.400;9.558;2023-05-01T05:04:47;101088.34;;;13.06;53.37
5812;BME280;2932;52.400;9.558;2023-05-01T05:07:13;101088.91;;;13.12;53.28
5812;BME280;2932;52.400;9.558;2023-05-01T05:09:38;101095.88;;;13.18;53.25
5812;BME280;2932;52.400;9.558;2023-05-01T05:12:03;101092.66;;;13.16;53.18
5812;BME280;2932;52.400;9.558;2023-05-01T05:14:29;101090.63;;;13.28;53.14
5812;BME280;2932;52.400;9.558;2023-05-01T05:16:55;101087.09;;;13.44;52.93
5812;BME280;2932;52.400;9.558;2023-05-01T05:19:20;101091.03;;;13.02;53.50
5812;BME280;2932;52.400;9.558;2023-05-01T05:21:46;101089.19;;;12.94;53.76
5812;BME280;2932;52.400;9.558;2023-05-01T05:24:12;101093.81;;;13.02;53.83
5812;BME280;2932;52.400;9.558;2023-05-01T05:26:37;101089.75;;;13.00;53.83
5812;BME280;2932;52.400;9.558;2023-05-01T05:29:03;101093.00;;;13.02;53.54
5812;BME280;2932;52.400;9.558;2023-05-01T05:31:28;101081.28;;;13.09;53.61
5812;BME280;2932;52.400;9.558;2023-05-01T05:33:54;101088.72;;;12.92;53.72
5812;BME280;2932;52.400;9.558;2023-05-01T05:36:19;101081.91;;;12.90;53.81
5812;BME280;2932;52.400;9.558;2023-05-01T05:38:44;101075.16;;;13.03;53.81
5812;BME280;2932;52.400;9.558;2023-05-01T05:41:10;101067.88;;;12.98;53.83
5812;BME280;2932;52.400;9.558;2023-05-01T05:43:35;101082.22;;;13.00;53.90
5812;BME280;2932;52.400;9.558;2023-05-01T05:46:01;101074.00;;;13.04;53.86
5812;BME280;2932;52.400;9.558;2023-05-01T05:48:26;101067.41;;;13.09;53.88
5812;BME280;2932;52.400;9.558;2023-05-01T05:50:52;101068.09;;;13.18;54.09
5812;BME280;2932;52.400;9.558;2023-05-01T05:53:18;101065.16;;;13.26;53.96
5812;BME280;2932;52.400;9.558;2023-05-01T05:55:46;101066.63;;;13.36;53.50
5812;BME280;2932;52.400;9.558;2023-05-01T05:58:11;101062.13;;;13.59;53.18
5812;BME280;2932;52.400;9.558;2023-05-01T06:00:38;101050.50;;;13.42;52.76
5812;BME280;2932;52.400;9.558;2023-05-01T06:03:04;101059.41;;;13.47;53.14
5812;BME280;2932;52.400;9.558;2023-05-01T06:05:29;101056.63;;;13.63;53.19
5812;BME280;2932;52.400;9.558;2023-05-01T06:07:54;101047.41;;;13.75;52.87
5812;BME280;2932;52.400;9.558;2023-05-01T06:10:20;101040.25;;;13.89;52.46
5812;BME280;2932;52.400;9.558;2023-05-01T06:12:45;101041.59;;;13.80;52.14
5812;BME280;2932;52.400;9.558;2023-05-01T06:15:12;101040.69;;;13.76;52.31
5812;BME280;2932;52.400;9.558;2023-05-01T06:17:41;101046.22;;;13.60;52.77
5812;BME280;2932;52.400;9.558;2023-05-01T06:20:07;101049.63;;;13.53;52.55
5812;BME280;2932;52.400;9.558;2023-05-01T06:22:33;101042.22;;;13.89;52.31
5812;BME280;2932;52.400;9.558;2023-05-01T06:24:58;101036.75;;;13.92;52.35
5812;BME280;2932;52.400;9.558;2023-05-01T06:27:23;101037.31;;;13.98;52.44
5812;BME280;2932;52.400;9.558;2023-05-01T06:29:49;101039.00;;;14.18;52.24
5812;BME280;2932;52.400;9.558;2023-05-01T06:32:15;101044.38;;;14.11;52.73
5812;BME280;2932;52.400;9.558;2023-05-01T06:34:40;101034.59;;;14.33;52.33
5812;BME280;2932;52.400;9.558;2023-05-01T06:37:06;101039.69;;;14.31;52.29
5812;BME280;2932;52.400;9.558;2023-05-01T06:39:31;101031.25;;;14.27;52.38
5812;BME280;2932;52.400;9.558;2023-05-01T06:41:57;101029.56;;;14.39;52.22
5812;BME280;2932;52.400;9.558;2023-05-01T06:44:22;101021.94;;;14.71;51.62
5812;BME280;2932;52.400;9.558;2023-05-01T06:46:48;101019.81;;;14.83;51.33
5812;BME280;2932;52.400;9.558;2023-05-01T06:49:13;101028.34;;;14.90;51.19
5812;BME280;2932;52.400;9.558;2023-05-01T06:51:38;101011.41;;;14.99;51.05
5812;BME280;2932;52.400;9.558;2023-05-01T06:54:04;101018.16;;;15.17;50.42
5812;BME280;2932;52.400;9.558;2023-05-01T06:56:29;101012.50;;;15.14;49.66
5812;BME280;2932;52.400;9.558;2023-05-01T06:58:56;101012.47;;;15.33;49.54
5812;BME280;2932;52.400;9.558;2023-05-01T07:01:21;101012.00;;;15.08;48.69
5812;BME280;2932;52.400;9.558;2023-05-01T07:03:47;101014.94;;;15.15;48.46
5812;BME280;2932;52.400;9.558;2023-05-01T07:06:12;101009.66;;;15.10;48.64
5812;BME280;2932;52.400;9.558;2023-05-01T07:08:38;101004.25;;;15.40;48.68
5812;BME280;2932;52.400;9.558;2023-05-01T07:11:03;100999.56;;;15.44;47.99
5812;BME280;2932;52.400;9.558;2023-05-01T07:13:29;101000.28;;;15.41;47.94
5812;BME280;2932;52.400;9.558;2023-05-01T07:15:54;101001.47;;;15.59;48.03
5812;BME280;2932;52.400;9.558;2023-05-01T07:18:19;100990.19;;;15.75;48.02
5812;BME280;2932;52.400;9.558;2023-05-01T07:20:45;100994.50;;;15.73;47.67
5812;BME280;2932;52.400;9.558;2023-05-01T07:23:11;100994.88;;;15.71;48.39
5812;BME280;2932;52.400;9.558;2023-05-01T07:25:36;100996.88;;;15.71;47.64
5812;BME280;2932;52.400;9.558;2023-05-01T07:28:02;100994.34;;;15.85;47.86
5812;BME280;2932;52.400;9.558;2023-05-01T07:30:29;100990.56;;;15.96;48.00
5812;BME280;2932;52.400;9.558;2023-05-01T07:32:55;100992.09;;;15.94;47.80
5812;BME280;2932;52.400;9.558;2023-05-01T07:35:22;100991.44;;;16.04;47.63
5812;BME280;2932;52.400;9.558;2023-05-01T07:37:48;100989.81;;;16.26;47.48
5812;BME280;2932;52.400;9.558;2023-05-01T07:40:15;100989.31;;;16.20;47.03
5812;BME280;2932;52.400;9.558;2023-05-01T07:42:41;100988.50;;;16.46;46.76
5812;BME280;2932;52.400;9.558;2023-05-01T07:45:06;100981.47;;;16.56;47.03
5812;BME280;2932;52.400;9.558;2023-05-01T07:47:33;100983.84;;;16.84;47.33
5812;BME280;2932;52.400;9.558;2023-05-01T07:49:58;100987.78;;;17.09;47.07
5812;BME280;2932;52.400;9.558;2023-05-01T07:52:23;100976.97;;;17.08;46.57
5812;BME280;2932;52.400;9.558;2023-05-01T07:54:49;100979.84;;;17.15;47.13
5812;BME280;2932;52.400;9.558;2023-05-01T07:57:15;100979.34;;;17.43;46.67
5812;BME280;2932;52.400;9.558;2023-05-01T07:59:40;100971.31;;;17.38;46.27
5812;BME280;2932;52.400;9.558;2023-05-01T08:02:06;100972.00;;;17.27;46.83
5812;BME280;2932;52.400;9.558;2023-05-01T08:04:31;100968.97;;;17.43;47.09
5812;BME280;2932;52.400;9.558;2023-05-01T08:06:56;100964.81;;;17.30;46.86
5812;BME280;2932;52.400;9.558;2023-05-01T08:09:22;100964.91;;;17.37;47.09
5812;BME280;2932;52.400;9.558;2023-05-01T08:11:47;100960.69;;;17.54;47.04
5812;BME280;2932;52.400;9.558;2023-05-01T08:14:12;100961.28;;;17.74;46.59
5812;BME280;2932;52.400;9.558;2023-05-01T08:16:38;100960.91;;;17.75;46.78
5812;BME280;2932;52.400;9.558;2023-05-01T08:19:03;100958.06;;;17.72;46.68
5812;BME280;2932;52.400;9.558;2023-05-01T08:21:28;100958.16;;;17.82;46.59
5812;BME280;2932;52.400;9.558;2023-05-01T08:23:54;100960.66;;;17.94;46.96
5812;BME280;2932;52.400;9.558;2023-05-01T08:26:20;100948.38;;;18.10;46.62
5812;BME280;2932;52.400;9.558;2023-05-01T08:28:45;100956.75;;;18.10;46.64
5812;BME280;2932;52.400;9.558;2023-05-01T08:31:11;100950.53;;;18.34;46.51
5812;BME280;2932;52.400;9.558;2023-05-01T08:33:37;100952.91;;;18.28;47.08
5812;BME280;2932;52.400;9.558;2023-05-01T08:36:06;100955.00;;;18.46;45.49
5812;BME280;2932;52.400;9.558;2023-05-01T08:38:31;100944.31;;;18.62;45.94
5812;BME280;2932;52.400;9.558;2023-05-01T08:40:56;100957.56;;;18.72;46.13
5812;BME280;2932;52.400;9.558;2023-05-01T08:43:24;100945.19;;;18.77;45.71
5812;BME280;2932;52.400;9.558;2023-05-01T08:45:52;100955.78;;;18.46;45.26
5812;BME280;2932;52.400;9.558;2023-05-01T08:48:20;100944.38;;;18.76;45.52
5812;BME280;2932;52.400;9.558;2023-05-01T08:50:47;100950.44;;;18.96;45.69
5812;BME280;2932;52.400;9.558;2023-05-01T08:53:17;100949.59;;;18.78;46.22
5812;BME280;2932;52.400;9.558;2023-05-01T08:55:44;100944.06;;;18.99;45.27
5812;BME280;2932;52.400;9.558;2023-05-01T08:58:13;100935.69;;;19.24;45.22
5812;BME280;2932;52.400;9.558;2023-05-01T09:00:39;100936.53;;;19.35;45.39
5812;BME280;2932;52.400;9.558;2023-05-01T09:03:07;100932.97;;;19.52;44.51
5812;BME280;2932;52.400;9.558;2023-05-01T09:05:34;100940.19;;;19.68;44.62
5812;BME280;2932;52.400;9.558;2023-05-01T09:08:00;100923.34;;;19.92;43.88
5812;BME280;2932;52.400;9.558;2023-05-01T09:10:25;100926.91;;;20.14;44.35
5812;BME280;2932;52.400;9.558;2023-05-01T09:13:00;100922.88;;;20.37;44.26
5812;BME280;2932;52.400;9.558;2023-05-01T09:15:28;100922.78;;;20.65;44.34
5812;BME280;2932;52.400;9.558;2023-05-01T09:17:55;100908.72;;;20.72;43.68
5812;BME280;2932;52.400;9.558;2023-05-01T09:20:23;100918.75;;;20.70;44.19
5812;BME280;2932;52.400;9.558;2023-05-01T09:22:49;100922.69;;;20.86;43.35
5812;BME280;2932;52.400;9.558;2023-05-01T09:25:14;100920.25;;;20.95;43.43
5812;BME280;2932;52.400;9.558;2023-05-01T09:27:39;100922.56;;;21.11;43.40
5812;BME280;2932;52.400;9.558;2023-05-01T09:30:05;100919.25;;;21.30;43.02
5812;BME280;2932;52.400;9.558;2023-05-01T09:32:31;100924.06;;;21.34;42.75
5812;BME280;2932;52.400;9.558;2023-05-01T09:35:09;100912.78;;;21.37;42.78
5812;BME280;2932;52.400;9.558;2023-05-01T09:37:36;100908.63;;;21.56;42.27
5812;BME280;2932;52.400;9.558;2023-05-01T09:42:26;100903.03;;;21.52;43.14
5812;BME280;2932;52.400;9.558;2023-05-01T09:44:52;100894.63;;;21.93;43.12
5812;BME280;2932;52.400;9.558;2023-05-01T09:47:21;100889.88;;;22.24;42.32
5812;BME280;2932;52.400;9.558;2023-05-01T09:49:47;100887.38;;;22.34;41.37
5812;BME280;2932;52.400;9.558;2023-05-01T09:52:13;100884.59;;;22.30;41.73
5812;BME280;2932;52.400;9.558;2023-05-01T09:54:39;100881.06;;;22.22;40.97
5812;BME280;2932;52.400;9.558;2023-05-01T09:57:05;100887.59;;;22.12;41.73
5812;BME280;2932;52.400;9.558;2023-05-01T09:59:31;100888.25;;;22.61;41.45
5812;BME280;2932;52.400;9.558;2023-05-01T10:01:59;100891.00;;;22.99;40.66
5812;BME280;2932;52.400;9.558;2023-05-01T10:04:33;100880.88;;;23.28;40.69
5812;BME280;2932;52.400;9.558;2023-05-01T10:07:14;100888.84;;;23.33;39.98
5812;BME280;2932;52.400;9.558;2023-05-01T10:09:39;100889.53;;;23.17;39.93
5812;BME280;2932;52.400;9.558;2023-05-01T10:12:06;100885.53;;;22.84;40.82
5812;BME280;2932;52.400;9.558;2023-05-01T10:14:31;100883.75;;;22.98;40.85
5812;BME280;2932;52.400;9.558;2023-05-01T10:17:16;100879.09;;;23.38;40.05
5812;BME280;2932;52.400;9.558;2023-05-01T10:19:41;100871.22;;;23.25;40.07
5812;BME280;2932;52.400;9.558;2023-05-01T10:22:06;100879.97;;;23.08;40.22
5812;BME280;2932;52.400;9.558;2023-05-01T10:24:32;100871.69;;;23.47;40.55
5812;BME280;2932;52.400;9.558;2023-05-01T10:26:59;100869.75;;;23.68;40.50
5812;BME280;2932;52.400;9.558;2023-05-01T10:29:26;100859.56;;;23.97;40.09
5812;BME280;2932;52.400;9.558;2023-05-01T10:31:53;100864.50;;;24.13;40.48
5812;BME280;2932;52.400;9.558;2023-05-01T10:34:20;100863.16;;;24.41;39.78
5812;BME280;2932;52.400;9.558;2023-05-01T10:36:54;100852.06;;;24.50;39.88
5812;BME280;2932;52.400;9.558;2023-05-01T10:39:34;100857.16;;;24.39;39.17
5812;BME280;2932;52.400;9.558;2023-05-01T10:44:27;100848.16;;;24.80;39.97
5812;BME280;2932;52.400;9.558;2023-05-01T10:46:54;100844.28;;;25.10;39.23
5812;BME280;2932;52.400;9.558;2023-05-01T10:49:19;100835.97;;;25.35;39.39
5812;BME280;2932;52.400;9.558;2023-05-01T10:54:32;100833.59;;;25.50;39.32
5812;BME280;2932;52.400;9.558;2023-05-01T10:57:01;100832.41;;;25.31;38.40
5812;BME280;2932;52.400;9.558;2023-05-01T11:00:09;100835.25;;;25.47;39.47
5812;BME280;2932;52.400;9.558;2023-05-01T11:02:21;100825.94;;;25.63;38.91
5812;BME280;2932;52.400;9.558;2023-05-01T11:04:49;100824.34;;;25.62;38.64
5812;BME280;2932;52.400;9.558;2023-05-01T11:07:16;100824.78;;;25.77;38.54
5812;BME280;2932;52.400;9.558;2023-05-01T11:09:50;100817.47;;;25.14;38.75
5812;BME280;2932;52.400;9.558;2023-05-01T11:15:10;100809.25;;;24.08;39.71
5812;BME280;2932;52.400;9.558;2023-05-01T11:20:05;100809.81;;;24.95;38.71
5812;BME280;2932;52.400;9.558;2023-05-01T11:22:32;100816.28;;;24.20;39.33
5812;BME280;2932;52.400;9.558;2023-05-01T11:24:57;100812.03;;;24.32;39.45
5812;BME280;2932;52.400;9.558;2023-05-01T11:27:23;100811.31;;;24.27;39.77
5812;BME280;2932;52.400;9.558;2023-05-01T11:29:49;100805.69;;;24.24;39.65
5812;BME280;2932;52.400;9.558;2023-05-01T11:32:18;100811.78;;;24.42;39.79
5812;BME280;2932;52.400;9.558;2023-05-01T11:34:43;100813.31;;;24.47;39.04
5812;BME280;2932;52.400;9.558;2023-05-01T11:37:08;100806.47;;;24.64;38.73
5812;BME280;2932;52.400;9.558;2023-05-01T11:39:34;100803.34;;;24.94;38.76
5812;BME280;2932;52.400;9.558;2023-05-01T11:42:06;100804.44;;;25.33;38.47
5812;BME280;2932;52.400;9.558;2023-05-01T11:44:32;100799.16;;;25.03;37.99
5812;BME280;2932;52.400;9.558;2023-05-01T11:46:58;100795.50;;;25.67;37.06
5812;BME280;2932;52.400;9.558;2023-05-01T11:49:26;100785.94;;;26.19;36.89
5812;BME280;2932;52.400;9.558;2023-05-01T11:51:56;100775.34;;;26.36;36.83
5812;BME280;2932;52.400;9.558;2023-05-01T11:54:22;100779.16;;;26.29;37.21
5812;BME280;2932;52.400;9.558;2023-05-01T11:56:56;100777.31;;;26.64;37.24
5812;BME280;2932;52.400;9.558;2023-05-01T11:59:22;100773.09;;;26.94;37.09
5812;BME280;2932;52.400;9.558;2023-05-01T12:01:47;100770.00;;;27.39;36.99
5812;BME280;2932;52.400;9.558;2023-05-01T12:04:26;100771.84;;;27.68;35.65
5812;BME280;2932;52.400;9.558;2023-05-01T12:06:52;100767.06;;;27.30;35.53
5812;BME280;2932;52.400;9.558;2023-05-01T12:09:18;100775.44;;;27.59;35.20
5812;BME280;2932;52.400;9.558;2023-05-01T12:11:45;100779.56;;;26.82;34.50
5812;BME280;2932;52.400;9.558;2023-05-01T12:14:13;100779.03;;;26.74;35.33
5812;BME280;2932;52.400;9.558;2023-05-01T12:16:39;100775.19;;;26.27;35.74
5812;BME280;2932;52.400;9.558;2023-05-01T12:19:06;100769.56;;;26.10;35.92
5812;BME280;2932;52.400;9.558;2023-05-01T12:21:32;100775.13;;;25.56;36.06
5812;BME280;2932;52.400;9.558;2023-05-01T12:24:10;100770.84;;;25.19;36.27
5812;BME280;2932;52.400;9.558;2023-05-01T12:26:35;100775.03;;;24.94;36.13
5812;BME280;2932;52.400;9.558;2023-05-01T12:29:04;100769.19;;;24.85;36.58
5812;BME280;2932;52.400;9.558;2023-05-01T12:31:30;100763.06;;;25.07;36.65
5812;BME280;2932;52.400;9.558;2023-05-01T12:34:00;100762.88;;;23.63;37.18
5812;BME280;2932;52.400;9.558;2023-05-01T12:36:28;100761.25;;;23.85;37.56
5812;BME280;2932;52.400;9.558;2023-05-01T12:38:55;100762.03;;;23.66;37.67
5812;BME280;2932;52.400;9.558;2023-05-01T12:41:40;100750.53;;;23.56;37.77
5812;BME280;2932;52.400;9.558;2023-05-01T12:44:23;100751.75;;;24.15;36.89
5812;BME280;2932;52.400;9.558;2023-05-01T12:46:59;100747.25;;;24.89;36.75
5812;BME280;2932;52.400;9.558;2023-05-01T12:49:26;100747.88;;;25.46;36.07
5812;BME280;2932;52.400;9.558;2023-05-01T12:51:54;100742.59;;;25.60;35.64
5812;BME280;2932;52.400;9.558;2023-05-01T12:56:46;100737.06;;;25.41;36.69
5812;BME280;2932;52.400;9.558;2023-05-01T12:59:22;100743.50;;;24.96;36.55
5812;BME280;2932;52.400;9.558;2023-05-01T13:02:04;100733.28;;;25.31;36.38
5812;BME280;2932;52.400;9.558;2023-05-01T13:04:31;100728.72;;;25.66;36.08
5812;BME280;2932;52.400;9.558;2023-05-01T13:06:57;100727.44;;;25.83;35.56
5812;BME280;2932;52.400;9.558;2023-05-01T13:09:23;100718.13;;;25.83;35.98
5812;BME280;2932;52.400;9.558;2023-05-01T13:12:10;100722.88;;;25.57;36.42
5812;BME280;2932;52.400;9.558;2023-05-01T13:14:40;100720.41;;;25.59;36.78
5812;BME280;2932;52.400;9.558;2023-05-01T13:17:07;100714.56;;;25.50;36.37
5812;BME280;2932;52.400;9.558;2023-05-01T13:19:32;100724.44;;;25.29;36.29
5812;BME280;2932;52.400;9.558;2023-05-01T13:21:58;100712.16;;;25.65;36.41
5812;BME280;2932;52.400;9.558;2023-05-01T13:24:34;100711.06;;;26.16;36.08
5812;BME280;2932;52.400;9.558;2023-05-01T13:26:59;100704.31;;;26.65;35.82
5812;BME280;2932;52.400;9.558;2023-05-01T13:29:26;100712.59;;;26.05;35.43
5812;BME280;2932;52.400;9.558;2023-05-01T13:31:51;100708.84;;;26.37;35.13
5812;BME280;2932;52.400;9.558;2023-05-01T13:34:29;100713.25;;;25.83;35.00
5812;BME280;2932;52.400;9.558;2023-05-01T13:36:56;100721.06;;;25.34;35.94
5812;BME280;2932;52.400;9.558;2023-05-01T13:39:22;100718.69;;;25.33;36.13
5812;BME280;2932;52.400;9.558;2023-05-01T13:41:51;100715.78;;;25.65;36.19